Latest Coastal Weather Observations for Kingfish B

IDV60701

Issued at 10:52 pm EST Thursday 27 April 2017 (issued every 10 minutes, with the page automatically refreshed every 10 minutes)

About coastal observations | Map of coastal stations | Coastal observations for VIC | Marine services | Other Formats
Station Details ID: 400139 Name: KINGFISH B (PLATFORM) Lat: -38.60 Lon: 148.19 Height: 31.4 m
Data from the previous 72 hours. | See also: Recent months for locations in Victoria
Date/Time
EST
Temp
°C
Wind Pressure Rain since
9am
mm
Weather Cloud Vis
km
Sea
Height
m
Swell
Dir  Spd
kts
Gust
kts
hPa Trend Height
m
Period
s
Dir
27/10:40pm 15.0 SW 13 19 1019.5 - - - - - - - - -
27/10:30pm 15.2 SW 14 19 1019.6 - - - - - - - - -
27/10:20pm 15.0 SW 13 17 1019.6 - - - - - - - - -
27/10:10pm 15.2 SW 17 24 1019.4 - - - - - - - - -
27/09:50pm 15.2 SW 14 18 1019.5 - - - - - - - - -
27/09:40pm 15.3 SW 15 20 1019.4 - - - - - - - - -
27/09:30pm 15.2 SW 13 17 1019.8 - - - - - - - - -
27/09:20pm 15.2 SW 15 19 1019.8 - - - - - - - - -
27/09:10pm 15.3 SW 16 20 1019.8 - - - - - - - - -
27/09:00pm 15.1 SSW 15 20 1020.1 - - - - - - - - -
27/08:50pm 15.0 SSW 16 23 1020.4 - - - - - - - - -
27/08:40pm 15.0 SW 15 20 1019.7 - - - - - - - - -
27/08:30pm 15.1 SW 16 21 1019.5 - - - - - - - - -
27/08:20pm 15.2 SW 17 22 1019.9 - - - - - - - - -
27/08:10pm 15.1 SW 17 20 1019.9 - - - - - - - - -
27/08:00pm 15.0 SW 17 21 1019.7 - - - - - - - - -
27/07:50pm 15.0 SW 18 25 1019.8 - - - - - - - - -
27/07:40pm 15.0 SW 17 23 1019.7 - - - - - - - - -
27/07:30pm 15.0 SW 17 22 1019.8 - - - - - - - - -
27/07:20pm 14.9 SW 19 23 1019.5 - - - - - - - - -
27/07:10pm 14.9 SW 19 23 1019.6 - - - - - - - - -
27/07:00pm 14.8 SW 18 22 1019.5 - - - - - - - - -
27/06:50pm 14.6 SW 18 23 1019.5 - - - - - - - - -
27/06:40pm 14.5 SW 18 23 1019.5 - - - - - - - - -
27/06:30pm 14.2 SW 15 22 1019.6 - - - - - - - - -
27/06:20pm 13.9 SW 12 16 1019.3 - - - - - - - - -
27/06:10pm 14.1 SW 16 21 1019.3 - - - - - - - - -
27/06:00pm 14.2 SW 16 19 1019.3 - - - - - - - - -
27/05:50pm 14.2 SW 16 21 1019.2 - - - - - - - - -
27/05:40pm 14.3 SW 18 22 1018.9 - - - - - - - - -
27/05:30pm 14.3 SW 18 22 1019.0 - - - - - - - - -
27/05:20pm 14.2 SW 17 22 1019.0 - - - - - - - - -
27/05:10pm 14.2 SW 16 20 1018.8 - - - - - - - - -
27/05:00pm 14.3 SW 18 22 1018.7 - - - - - - - - -
27/04:50pm 14.6 SW 20 24 1018.6 - - - - - - - - -
27/04:40pm 14.8 SW 17 23 1018.8 - - - - - - - - -
27/04:30pm 14.9 SSW 17 21 1018.9 - - - - - - - - -
27/04:20pm 14.7 SSW 15 22 1019.2 - - - - - - - - -
27/04:10pm 14.4 SSW 14 18 1019.4 - - - - - - - - -
27/04:00pm 14.1 SSW 17 21 1019.6 - - - - - - - - -
27/03:50pm 14.0 SSW 17 21 1019.7 - - - - - - - - -
27/03:40pm 14.2 SSW 21 27 1019.8 - - - - - - - - -
27/03:30pm 14.9 SW 23 30 1019.0 - - - - - - - - -
27/03:20pm 14.9 SSW 18 25 1019.1 - - - - - - - - -
27/03:10pm 14.3 SSW 16 21 1019.6 - - - - - - - - -
27/03:00pm 14.7 SSW 20 25 1019.5 - - - - - - - - -
27/02:50pm 14.6 SSW 17 22 1019.4 - - - - - - - - -
27/02:40pm 15.1 SSW 19 23 1018.9 - - - - - - - - -
27/02:30pm 15.3 SW 20 25 1018.4 - - - - - - - - -
27/02:20pm 15.3 SSW 19 23 1018.8 - - - - - - - - -
27/02:10pm 15.2 SSW 19 23 1018.8 - - - - - - - - -
27/02:00pm 14.8 SSW 15 22 1018.9 - - - - - - - - -
27/01:50pm 14.6 SSW 17 23 1019.3 - - - - - - - - -
27/01:40pm 14.3 SSW 22 29 1019.5 - - - - - - - - -
27/01:30pm 15.1 SSW 20 27 1019.2 - - - - - - - - -
27/01:20pm 15.2 SSW 18 22 1019.0 - - - - - - - - -
27/01:10pm 15.0 SSW 16 21 1018.8 - - - - - - - - -
27/01:00pm 15.2 SSW 15 20 1018.7 - - - - - - - - -
27/12:50pm 14.9 SSW 14 17 1018.8 - - - - - - - - -
27/12:40pm 14.5 SSW 13 17 1019.0 - - - - - - - - -
27/12:30pm 14.5 SSW 13 18 1019.2 - - - - - - - - -
27/12:20pm 14.4 SSW 12 18 1019.2 - - - - - - - - -
27/12:10pm 14.6 SSW 13 18 1019.3 - - - - - - - - -
27/12:00pm 14.8 SSW 13 20 1019.3 - - - - - - - - -
27/11:50am 14.5 SSW 13 16 1019.4 - - - - - - - - -
27/11:40am 14.2 SSW 14 20 1019.6 - - - - - - - - -
27/11:30am 14.7 SSW 14 18 1019.5 - - - - - - - - -
27/11:20am 14.9 SSW 14 19 1019.4 - - - - - - - - -
27/11:10am 14.7 SSW 13 18 1019.3 - - - - - - - - -
27/11:00am 14.3 SSW 13 19 1019.3 - - - - - - - - -
27/10:50am 13.5 S 11 15 1019.4 - - - - - - - - -
27/10:40am 13.2 S 10 13 1019.4 - - - - - - - - -
27/10:30am 13.1 S 12 17 1019.4 - - - - - - - - -
27/10:20am 13.1 S 12 19 1019.3 - - - - - - - - -
27/10:10am 12.8 S 10 15 1019.3 - - - - - - - - -
27/10:00am 12.6 SSE 12 17 1019.3 - - - - - - - - -
27/09:50am 12.2 SSE 10 14 1019.3 - - - - - - - - -
27/09:40am 12.4 S 16 22 1019.6 - - - - - - - - -
27/09:30am 12.9 S 15 23 1019.5 - - - - - - - - -
27/09:20am 12.4 SSE 9 15 1019.3 - - - - - - - - -
27/09:10am 11.8 SSE 9 17 1019.4 - - - - - - - - -
27/09:00am 12.8 S 20 28 1020.0 - - - - - - - - -
27/08:50am 13.1 S 12 17 1019.3 - - - - - - - - -
27/08:40am 13.1 S 13 20 1019.1 - - - - - - - - -
27/08:30am 12.5 S 14 19 1019.1 - - - - - - - - -
27/08:20am 12.9 S 15 22 1019.1 - - - - - - - - -
27/08:10am 13.3 S 17 26 1018.9 - - - - - - - - -
27/08:00am 13.4 S 15 18 1018.7 - - - - - - - - -
27/07:50am 13.3 S 16 21 1018.5 - - - - - - - - -
27/07:40am 13.2 S 16 20 1018.3 - - - - - - - - -
27/07:30am 13.2 S 17 23 1018.3 - - - - - - - - -
27/07:20am 13.1 S 18 22 1017.9 - - - - - - - - -
27/07:10am 13.1 S 18 23 1018.0 - - - - - - - - -
27/07:00am 13.1 S 18 23 1017.9 - - - - - - - - -
27/06:50am 13.1 S 16 21 1017.6 - - - - - - - - -
27/06:40am 13.0 S 16 20 1017.6 - - - - - - - - -
27/06:30am 13.0 S 16 20 1017.4 - - - - - - - - -
27/06:20am 12.9 S 15 21 1017.2 - - - - - - - - -
27/06:10am 12.9 S 16 21 1017.1 - - - - - - - - -
27/06:00am 12.8 S 15 20 1016.9 - - - - - - - - -
27/05:50am 12.8 S 16 20 1016.8 - - - - - - - - -
27/05:40am 12.8 S 15 21 1016.8 - - - - - - - - -
27/05:30am 12.9 S 15 20 1016.7 - - - - - - - - -
27/05:20am 12.9 SSE 15 22 1016.5 - - - - - - - - -
27/05:00am 12.8 S 15 19 1016.3 - - - - - - - - -
27/04:50am 13.0 S 16 21 1016.2 - - - - - - - - -
27/04:40am 13.0 S 17 21 1016.1 - - - - - - - - -
27/04:30am 12.9 S 16 21 1016.2 - - - - - - - - -
27/04:20am 12.9 S 17 22 1016.2 - - - - - - - - -
27/04:10am 12.9 S 17 22 1016.0 - - - - - - - - -
27/04:00am 12.8 S 17 23 1015.9 - - - - - - - - -
27/03:50am 12.8 S 16 20 1015.8 - - - - - - - - -
27/03:40am 12.9 S 17 24 1015.8 - - - - - - - - -
27/03:30am 12.9 S 17 22 1015.7 - - - - - - - - -
27/03:20am 12.9 S 16 23 1015.7 - - - - - - - - -
27/03:10am 12.9 S 16 21 1015.6 - - - - - - - - -
27/03:00am 13.0 S 16 21 1015.6 - - - - - - - - -
27/02:50am 13.1 S 17 21 1015.7 - - - - - - - - -
27/02:40am 13.2 S 16 20 1015.7 - - - - - - - - -
27/02:30am 13.2 S 19 23 1015.7 - - - - - - - - -
27/02:20am 13.3 SSE 18 22 1015.7 - - - - - - - - -
27/02:10am 13.4 SSE 17 23 1015.5 - - - - - - - - -
27/02:00am 13.5 SSE 18 26 1015.6 - - - - - - - - -
27/01:50am 13.6 SSE 16 23 1015.5 - - - - - - - - -
27/01:40am 13.7 SSE 16 22 1015.2 - - - - - - - - -
27/01:30am 13.6 S 15 21 1015.2 - - - - - - - - -
27/01:20am 13.6 S 14 19 1015.0 - - - - - - - - -
27/01:10am 13.8 S 14 21 1015.1 - - - - - - - - -
27/01:00am 13.7 S 12 18 1015.0 - - - - - - - - -
27/12:50am 13.6 S 13 18 1014.9 - - - - - - - - -
27/12:40am 13.6 S 12 17 1014.8 - - - - - - - - -
27/12:30am 13.6 S 12 17 1014.8 - - - - - - - - -
27/12:20am 13.6 SSW 11 18 1014.6 - - - - - - - - -
27/12:10am 13.4 SSW 8 13 1014.5 - - - - - - - - -
27/12:00am 13.2 SSW 9 11 1014.4 - - - - - - - - -
 
Date/Time
EST
Temp
°C
Wind Pressure Rain since
9am
mm
Weather Cloud Vis
km
Sea
Height
m
Swell
Dir  Spd
kts
Gust
kts
hPa Trend Height
m
Period
s
Dir
26/11:50pm 13.1 SSW 7 10 1014.2 - - - - - - - - -
26/11:40pm 12.9 SSW 6 9 1014.2 - - - - - - - - -
26/11:30pm 12.8 SSW 5 9 1014.3 - - - - - - - - -
26/11:20pm 12.5 SSW 5 7 1014.2 - - - - - - - - -
26/11:10pm 12.2 SSW 3 6 1014.0 - - - - - - - - -
26/11:00pm 12.1 SSW 5 9 1014.2 - - - - - - - - -
26/10:50pm 12.2 S 10 17 1014.4 - - - - - - - - -
26/10:40pm 11.5 S 18 24 1014.9 - - - - - - - - -
26/10:30pm 11.8 S 20 25 1015.0 - - - - - - - - -
26/10:20pm 11.5 S 18 21 1014.8 - - - - - - - - -
26/10:10pm 12.4 SSE 12 26 1014.2 - - - - - - - - -
26/10:00pm 15.2 SW 7 12 1013.5 - - - - - - - - -
26/09:50pm 13.2 SW 14 20 1013.2 - - - - - - - - -
26/09:40pm 13.5 SW 20 25 1012.9 - - - - - - - - -
26/09:30pm 13.9 SSW 21 25 1013.3 - - - - - - - - -
26/09:20pm 13.9 SW 14 19 1013.0 - - - - - - - - -
26/09:10pm 13.5 SW 16 21 1012.8 - - - - - - - - -
26/09:00pm 13.5 SW 17 21 1012.7 - - - - - - - - -
26/08:50pm 13.3 SSW 16 20 1013.3 - - - - - - - - -
26/08:40pm 13.1 S 18 23 1013.4 - - - - - - - - -
26/08:30pm 13.0 S 21 25 1013.4 - - - - - - - - -
26/08:20pm 13.3 SSW 19 24 1013.4 - - - - - - - - -
26/08:10pm 13.6 SSW 20 24 1013.2 - - - - - - - - -
26/08:00pm 14.1 SSW 18 22 1012.8 - - - - - - - - -
26/07:50pm 14.5 SSW 18 23 1012.4 - - - - - - - - -
26/07:40pm 14.3 SSW 18 22 1012.3 - - - - - - - - -
26/07:30pm 14.3 SW 18 23 1012.1 - - - - - - - - -
26/07:20pm 14.3 SSW 19 24 1012.2 - - - - - - - - -
26/07:10pm 14.4 SW 20 27 1011.8 - - - - - - - - -
26/07:00pm 14.5 SW 22 28 1011.9 - - - - - - - - -
26/06:50pm 14.5 SSW 21 27 1011.7 - - - - - - - - -
26/06:40pm 14.3 SSW 19 25 1011.9 - - - - - - - - -
26/06:30pm 14.3 SSW 21 28 1012.1 - - - - - - - - -
26/06:20pm 14.4 SSW 22 28 1011.9 - - - - - - - - -
26/06:10pm 14.6 SSW 23 29 1011.6 - - - - - - - - -
26/06:00pm 14.6 SSW 23 27 1011.6 - - - - - - - - -
26/05:50pm 14.5 SSW 25 31 1011.2 - - - - - - - - -
26/05:40pm 14.5 SSW 25 30 1011.1 - - - - - - - - -
26/05:30pm 14.5 SSW 25 32 1010.9 - - - - - - - - -
26/05:20pm 14.2 SSW 26 31 1011.1 - - - - - - - - -
26/05:10pm 14.6 SSW 26 31 1010.1 - - - - - - - - -
26/05:00pm 14.7 SSW 26 32 1010.2 - - - - - - - - -
26/04:50pm 14.7 SSW 27 33 1009.6 - - - - - - - - -
26/04:40pm 14.6 SSW 27 33 1010.2 - - - - - - - - -
26/04:30pm 14.7 SSW 28 33 1009.8 - - - - - - - - -
26/04:20pm 14.9 SSW 28 35 1009.9 - - - - - - - - -
26/04:10pm 15.1 SSW 29 35 1009.3 - - - - - - - - -
26/04:00pm 15.3 SSW 29 33 1008.9 - - - - - - - - -
26/03:50pm 15.4 SSW 30 35 1008.6 - - - - - - - - -
26/03:40pm 15.4 SSW 30 35 1008.3 - - - - - - - - -
26/03:30pm 15.6 SSW 30 35 1008.4 - - - - - - - - -
26/03:20pm 15.8 SSW 30 36 1008.0 - - - - - - - - -
26/03:10pm 15.7 SSW 30 34 1008.2 - - - - - - - - -
26/03:00pm 15.9 SSW 31 36 1007.9 - - - - - - - - -
26/02:50pm 16.0 SSW 31 38 1007.3 - - - - - - - - -
26/02:40pm 16.0 SSW 31 39 1006.9 - - - - - - - - -
26/02:30pm 15.9 SSW 32 37 1007.7 - - - - - - - - -
26/02:20pm 16.2 SSW 30 36 1007.1 - - - - - - - - -
26/02:10pm 16.2 SSW 32 37 1007.1 - - - - - - - - -
26/01:50pm 16.1 SSW 31 38 1007.0 - - - - - - - - -
26/01:40pm 16.1 SSW 32 37 1006.8 - - - - - - - - -
26/01:30pm 16.5 SSW 32 39 1006.3 - - - - - - - - -
26/01:20pm 16.4 SSW 31 37 1006.5 - - - - - - - - -
26/01:10pm 16.5 SSW 32 38 1006.2 - - - - - - - - -
26/01:00pm 16.6 SSW 31 36 1006.1 - - - - - - - - -
26/12:50pm 16.7 SSW 31 36 1005.8 - - - - - - - - -
26/12:40pm 16.8 SSW 30 36 1005.4 - - - - - - - - -
26/12:30pm 16.9 SW 32 38 1004.8 - - - - - - - - -
26/12:20pm 17.1 SW 29 35 1004.9 - - - - - - - - -
26/12:10pm 17.1 SW 28 34 1004.6 - - - - - - - - -
26/12:00pm 17.1 SW 30 36 1004.5 - - - - - - - - -
26/11:50am 17.1 SW 29 34 1004.8 - - - - - - - - -
26/11:40am 17.1 SW 29 35 1004.6 - - - - - - - - -
26/11:30am 17.2 SW 30 34 1004.2 - - - - - - - - -
26/11:20am 17.3 SW 28 33 1003.9 - - - - - - - - -
26/11:10am 17.4 SW 26 30 1003.9 - - - - - - - - -
26/11:00am 17.4 SW 27 33 1004.1 - - - - - - - - -
26/10:50am 17.4 SW 26 31 1003.9 - - - - - - - - -
26/10:40am 17.6 SW 24 29 1004.1 - - - - - - - - -
26/10:30am 17.6 SW 21 27 1004.2 - - - - - - - - -
26/10:20am 17.3 SSW 21 25 1004.3 - - - - - - - - -
26/10:10am 17.2 SW 23 29 1003.8 - - - - - - - - -
26/10:00am 17.1 SW 24 28 1003.9 - - - - - - - - -
26/09:50am 17.1 SW 22 27 1003.7 - - - - - - - - -
26/09:40am 17.2 SW 19 27 1003.9 - - - - - - - - -
26/09:30am 17.0 SSW 20 24 1003.9 - - - - - - - - -
26/09:20am 16.9 SSW 19 23 1004.1 - - - - - - - - -
26/09:10am 16.8 SSW 20 23 1004.0 - - - - - - - - -
26/09:00am 16.6 SSW 20 25 1003.7 - - - - - - - - -
26/08:50am 16.7 SW 20 24 1003.6 - - - - - - - - -
26/08:40am 16.6 SSW 23 29 1003.4 - - - - - - - - -
26/08:30am 16.5 SSW 25 30 1003.3 - - - - - - - - -
26/08:20am 16.3 SW 24 30 1003.0 - - - - - - - - -
26/08:10am 16.5 SW 25 30 1002.2 - - - - - - - - -
26/08:00am 16.5 WSW 22 27 1002.3 - - - - - - - - -
26/07:50am 16.3 W 23 27 1002.2 - - - - - - - - -
26/07:40am 16.6 WSW 23 28 1002.3 - - - - - - - - -
26/07:30am 16.9 W 24 28 1002.2 - - - - - - - - -
26/07:20am 17.1 W 24 29 1002.1 - - - - - - - - -
26/07:10am 17.1 W 23 29 1002.1 - - - - - - - - -
26/07:00am 17.1 WSW 20 27 1002.0 - - - - - - - - -
26/06:50am 17.1 WSW 19 23 1001.9 - - - - - - - - -
26/06:40am 17.0 WSW 18 23 1001.8 - - - - - - - - -
26/06:30am 17.0 WSW 16 21 1001.9 - - - - - - - - -
26/06:20am 16.9 WSW 15 19 1001.8 - - - - - - - - -
26/06:10am 16.7 WSW 13 16 1001.8 - - - - - - - - -
26/06:00am 16.7 SW 14 19 1001.6 - - - - - - - - -
26/05:50am 16.8 WSW 11 19 1001.7 - - - - - - - - -
26/05:40am 16.8 WSW 8 12 1001.7 - - - - - - - - -
26/05:30am 16.9 WSW 6 12 1001.7 - - - - - - - - -
26/05:20am 17.1 WSW 9 12 1001.8 - - - - - - - - -
26/05:10am 17.0 WSW 12 16 1001.8 - - - - - - - - -
26/05:00am 17.0 WSW 9 12 1001.8 - - - - - - - - -
26/04:50am 17.0 WSW 8 12 1001.7 - - - - - - - - -
26/04:40am 17.0 WSW 9 14 1001.8 - - - - - - - - -
26/04:30am 17.0 WSW 10 13 1001.6 - - - - - - - - -
26/04:20am 17.0 WSW 10 13 1001.6 - - - - - - - - -
26/04:10am 17.1 W 11 14 1001.8 - - - - - - - - -
26/04:00am 17.2 W 11 15 1001.9 - - - - - - - - -
26/03:50am 17.3 W 12 17 1002.0 - - - - - - - - -
26/03:40am 17.5 W 14 19 1002.0 - - - - - - - - -
26/03:30am 17.7 W 16 20 1002.0 - - - - - - - - -
26/03:20am 18.0 W 18 23 1002.0 - - - - - - - - -
26/03:10am 18.4 W 18 23 1002.0 - - - - - - - - -
26/03:00am 18.6 WNW 18 22 1002.1 - - - - - - - - -
26/02:50am 18.3 WNW 18 23 1002.2 - - - - - - - - -
26/02:40am 18.2 W 19 24 1002.2 - - - - - - - - -
26/02:30am 18.1 WNW 15 19 1002.3 - - - - - - - - -
26/02:20am 18.2 WNW 13 19 1002.5 - - - - - - - - -
26/02:10am 18.1 WNW 11 15 1002.7 - - - - - - - - -
26/02:00am 17.9 WNW 10 12 1002.8 - - - - - - - - -
26/01:50am 17.8 NW 7 12 1002.7 - - - - - - - - -
26/01:40am 17.8 NW 8 12 1002.7 - - - - - - - - -
26/01:30am 17.8 NW 7 11 1002.7 - - - - - - - - -
26/01:20am 17.8 NW 7 9 1002.7 - - - - - - - - -
26/01:10am 17.9 NW 7 10 1002.8 - - - - - - - - -
26/01:00am 18.0 NW 9 11 1002.9 - - - - - - - - -
26/12:50am 18.1 NW 7 10 1003.0 - - - - - - - - -
26/12:40am 18.2 WNW 6 8 1003.1 - - - - - - - - -
26/12:30am 18.3 WNW 6 9 1003.1 - - - - - - - - -
26/12:20am 18.2 WNW 7 10 1003.1 - - - - - - - - -
26/12:10am 18.3 WNW 7 11 1003.1 - - - - - - - - -
26/12:00am 18.5 WNW 8 11 1003.2 - - - - - - - - -
 
Date/Time
EST
Temp
°C
Wind Pressure Rain since
9am
mm
Weather Cloud Vis
km
Sea
Height
m
Swell
Dir  Spd
kts
Gust
kts
hPa Trend Height
m
Period
s
Dir
25/11:50pm 18.4 WNW 8 12 1003.3 - - - - - - - - -
25/11:40pm 18.4 WNW 8 12 1003.4 - - - - - - - - -
25/11:30pm 18.2 W 8 12 1003.4 - - - - - - - - -
25/11:20pm 18.2 W 8 11 1003.5 - - - - - - - - -
25/11:10pm 18.1 W 8 11 1003.6 - - - - - - - - -
25/11:00pm 17.7 W 7 10 1003.6 - - - - - - - - -
25/10:50pm 17.8 W 7 11 1003.7 - - - - - - - - -
25/10:40pm 17.6 W 8 10 1003.7 - - - - - - - - -
25/10:30pm 17.4 W 7 10 1003.8 - - - - - - - - -
25/10:20pm 17.4 WSW 8 11 1004.0 - - - - - - - - -
25/10:10pm 17.3 W 7 10 1004.1 - - - - - - - - -
25/10:00pm 17.4 WSW 6 9 1004.2 - - - - - - - - -
25/09:50pm 17.3 WSW 6 9 1004.2 - - - - - - - - -
25/09:40pm 17.5 SW 8 10 1004.3 - - - - - - - - -
25/09:30pm 17.5 WSW 9 13 1004.5 - - - - - - - - -
25/09:20pm 17.5 WSW 10 13 1004.7 - - - - - - - - -
25/09:00pm 17.6 WSW 12 14 1004.8 - - - - - - - - -
25/08:50pm 17.6 SW 13 16 1004.8 - - - - - - - - -
25/08:40pm 17.6 SW 12 15 1004.7 - - - - - - - - -
25/08:30pm 17.6 SW 13 16 1004.7 - - - - - - - - -
25/08:20pm 17.4 SW 14 17 1004.8 - - - - - - - - -
25/08:10pm 17.3 SW 14 17 1004.8 - - - - - - - - -
25/08:00pm 17.3 SW 13 17 1004.7 - - - - - - - - -
25/07:50pm 17.4 SW 12 16 1004.8 - - - - - - - - -
25/07:40pm 17.4 SW 13 17 1004.8 - - - - - - - - -
25/07:30pm 17.5 SW 14 17 1004.6 - - - - - - - - -
25/07:20pm 17.6 SW 15 18 1004.6 - - - - - - - - -
25/07:10pm 17.7 SSW 16 19 1004.8 - - - - - - - - -
25/07:00pm 17.8 SSW 16 19 1004.9 - - - - - - - - -
25/06:50pm 17.6 SSW 18 22 1004.8 - - - - - - - - -
25/06:40pm 17.6 SW 17 20 1004.5 - - - - - - - - -
25/06:30pm 17.6 SSW 16 21 1004.7 - - - - - - - - -
25/06:20pm 17.6 SW 17 20 1004.4 - - - - - - - - -
25/06:10pm 17.7 SW 17 20 1004.3 - - - - - - - - -
25/06:00pm 17.8 SSW 15 19 1004.4 - - - - - - - - -
25/05:50pm 18.0 SW 16 20 1004.3 - - - - - - - - -
25/05:40pm 17.9 SW 18 21 1004.0 - - - - - - - - -
25/05:30pm 17.9 SSW 15 19 1004.0 - - - - - - - - -
25/05:20pm 18.0 SSW 14 17 1004.0 - - - - - - - - -
25/05:10pm 18.0 SSW 15 18 1003.9 - - - - - - - - -
25/05:00pm 17.9 SSW 15 19 1004.0 - - - - - - - - -
25/04:50pm 17.7 SSW 18 21 1004.0 - - - - - - - - -
25/04:40pm 17.7 SSW 12 20 1003.8 - - - - - - - - -
25/04:30pm 17.9 SSW 13 18 1003.7 - - - - - - - - -
25/04:20pm 18.4 SW 15 19 1003.4 - - - - - - - - -
25/04:10pm 18.7 SW 15 18 1003.3 - - - - - - - - -
25/04:00pm 18.8 SW 12 17 1003.2 - - - - - - - - -
25/03:50pm 18.7 SW 12 14 1003.2 - - - - - - - - -
25/03:40pm 18.5 SW 12 15 1003.1 - - - - - - - - -
25/03:30pm 18.5 SW 11 15 1003.2 - - - - - - - - -
25/03:20pm 18.6 SW 9 13 1003.3 - - - - - - - - -
25/03:10pm 18.9 SW 11 13 1003.3 - - - - - - - - -
25/03:00pm 19.0 SW 11 13 1003.2 - - - - - - - - -
25/02:50pm 19.5 SW 11 14 1003.2 - - - - - - - - -
25/02:40pm 19.7 WSW 10 12 1003.1 - - - - - - - - -
25/02:30pm 19.8 WSW 12 14 1003.1 - - - - - - - - -
25/02:20pm 20.0 WSW 12 14 1002.9 - - - - - - - - -
25/02:10pm 20.2 WSW 11 14 1002.8 - - - - - - - - -
25/02:00pm 20.2 WSW 12 15 1002.8 - - - - - - - - -
25/01:50pm 20.7 WSW 14 17 1002.9 - - - - - - - - -
25/01:40pm 21.4 W 12 18 1003.0 - - - - - - - - -
25/01:30pm 21.2 WNW 9 15 1003.1 - - - - - - - - -
25/01:20pm 20.9 WNW 9 15 1003.1 - - - - - - - - -
25/01:10pm 20.8 NW 11 15 1003.2 - - - - - - - - -
25/01:00pm 20.7 NW 11 15 1003.3 - - - - - - - - -
25/12:50pm 20.7 NW 11 14 1003.5 - - - - - - - - -
25/12:40pm 20.6 NW 10 13 1003.7 - - - - - - - - -
25/12:30pm 20.6 NW 9 12 1003.8 - - - - - - - - -
25/12:20pm 20.8 NW 9 12 1003.9 - - - - - - - - -
25/12:10pm 20.9 NW 10 12 1004.1 - - - - - - - - -
25/12:00pm 20.8 NW 10 14 1004.3 - - - - - - - - -
25/11:50am 20.6 NW 11 15 1004.4 - - - - - - - - -
25/11:40am 20.5 NW 11 14 1004.5 - - - - - - - - -
25/11:30am 20.4 NW 12 15 1004.7 - - - - - - - - -
25/11:20am 20.2 NW 11 13 1004.9 - - - - - - - - -
25/11:10am 20.0 NW 12 15 1005.2 - - - - - - - - -
25/11:00am 19.8 NW 11 14 1005.4 - - - - - - - - -
25/10:50am 19.7 NW 10 12 1005.4 - - - - - - - - -
25/10:40am 19.6 NW 10 12 1005.5 - - - - - - - - -
25/10:30am 19.6 NW 10 12 1005.7 - - - - - - - - -
25/10:20am 19.7 NW 9 11 1005.7 - - - - - - - - -
25/10:10am 19.6 NW 9 11 1005.8 - - - - - - - - -
25/10:00am 19.6 NW 9 11 1005.8 - - - - - - - - -
25/09:50am 19.7 NW 9 11 1005.9 - - - - - - - - -
25/09:40am 19.7 NW 8 11 1005.9 - - - - - - - - -
25/09:30am 19.7 NW 7 10 1006.0 - - - - - - - - -
25/09:20am 19.7 NW 8 10 1006.3 - - - - - - - - -
25/09:10am 19.8 NW 7 9 1006.2 - - - - - - - - -
25/09:00am 19.9 NW 7 9 1006.2 - - - - - - - - -
25/08:50am 19.9 NW 8 11 1006.4 - - - - - - - - -
25/08:40am 19.9 NW 7 10 1006.2 - - - - - - - - -
25/08:30am 19.8 NW 7 10 1005.9 - - - - - - - - -
25/08:20am 19.7 NW 7 10 1006.1 - - - - - - - - -
25/08:10am 19.6 NW 8 11 1005.2 - - - - - - - - -
25/08:00am 19.5 NNW 8 10 999.0 - - - - - - - - -
25/07:50am 0.0 NNW 8 7 992.3 - - - - - - - - -
25/05:40am 0.0 CALM 0 0 1007.0 - - - - - - - - -
25/05:30am 0.0 CALM 0 0 1006.9 - - - - - - - - -
25/05:20am 0.0 CALM 0 0 1006.9 - - - - - - - - -
25/05:10am 0.0 CALM 0 0 1007.0 - - - - - - - - -
25/04:50am 0.0 CALM 0 0 1006.8 - - - - - - - - -
25/04:40am 0.0 CALM 0 0 1006.6 - - - - - - - - -
25/04:30am 0.0 CALM 0 0 1006.4 - - - - - - - - -
25/04:20am 0.0 CALM 0 0 1006.3 - - - - - - - - -
25/04:10am 0.0 CALM 0 0 1006.5 - - - - - - - - -
25/03:50am 0.0 CALM 0 0 1006.8 - - - - - - - - -
25/03:40am 0.0 CALM 0 0 1007.0 - - - - - - - - -
25/03:30am 0.0 CALM 0 0 1007.3 - - - - - - - - -
25/03:20am 0.0 CALM 0 0 1007.5 - - - - - - - - -
25/02:50am 0.0 CALM 0 0 1008.2 - - - - - - - - -
25/02:40am 0.0 CALM 0 0 1008.3 - - - - - - - - -
25/02:30am 0.0 CALM 0 0 1008.5 - - - - - - - - -
25/01:50am 0.0 CALM 0 0 1009.2 - - - - - - - - -
25/01:40am 0.0 CALM 0 0 1009.6 - - - - - - - - -
25/01:20am 0.0 CALM 0 0 1010.0 - - - - - - - - -
25/12:10am 0.0 CALM 0 0 1011.4 - - - - - - - - -
 
Date/Time
EST
Temp
°C
Wind Pressure Rain since
9am
mm
Weather Cloud Vis
km
Sea
Height
m
Swell
Dir  Spd
kts
Gust
kts
hPa Trend Height
m
Period
s
Dir
24/11:50pm 0.0 CALM 0 0 1011.9 - - - - - - - - -
24/11:40pm 0.0 CALM 0 0 1012.0 - - - - - - - - -
24/11:30pm 0.0 CALM 0 0 1012.1 - - - - - - - - -
24/11:20pm 0.0 CALM 0 0 1012.3 - - - - - - - - -

Other Formats:

Comma delimited format used in spreadsheet applications
http://www.bom.gov.au/fwo/IDV60701/IDV60701.55039.axf

JavaScript Object Notation format (JSON) in row-major order
http://www.bom.gov.au/fwo/IDV60701/IDV60701.55039.json